createdAt,value
2019-04-26T00:00:58.854Z,15.98
2019-04-26T00:03:38.331Z,15.96
2019-04-26T00:06:10.268Z,16.01
2019-04-26T00:08:41.814Z,15.94
2019-04-26T00:11:19.113Z,15.99
2019-04-26T00:14:09.875Z,16.02
2019-04-26T00:16:55.094Z,16.06
2019-04-26T00:19:26.371Z,16.03
2019-04-26T00:22:00.150Z,16.01
2019-04-26T00:24:30.935Z,16.03
2019-04-26T00:27:01.540Z,15.96
2019-04-26T00:29:32.357Z,15.93
2019-04-26T00:32:08.422Z,15.96
2019-04-26T00:34:39.716Z,15.94
2019-04-26T00:37:10.169Z,15.87
2019-04-26T00:39:40.721Z,15.83
2019-04-26T00:42:14.695Z,15.69
2019-04-26T00:44:48.164Z,15.66
2019-04-26T00:47:21.149Z,15.58
2019-04-26T00:49:51.633Z,15.55
2019-04-26T00:52:22.381Z,15.51
2019-04-26T00:54:52.805Z,15.47
2019-04-26T00:57:24.457Z,15.41
2019-04-26T00:59:54.968Z,15.26
2019-04-26T01:02:31.435Z,15.18
2019-04-26T01:05:01.851Z,15.15
2019-04-26T01:07:32.412Z,15.12
2019-04-26T01:10:03.248Z,15.08
2019-04-26T01:12:33.798Z,14.99
2019-04-26T01:15:04.392Z,15.02
2019-04-26T01:17:34.982Z,14.98
2019-04-26T01:20:05.465Z,14.91
2019-04-26T01:22:40.437Z,14.91
2019-04-26T01:25:32.103Z,14.96
2019-04-26T01:28:25.859Z,14.95
2019-04-26T01:30:56.281Z,14.88
2019-04-26T01:33:29.339Z,14.84
2019-04-26T01:36:12.406Z,14.90
2019-04-26T01:38:43.368Z,14.92
2019-04-26T01:41:15.800Z,14.91
2019-04-26T01:44:01.341Z,14.92
2019-04-26T01:46:39.087Z,14.84
2019-04-26T01:49:10.413Z,14.83
2019-04-26T01:51:46.628Z,14.91
2019-04-26T01:54:18.668Z,14.82
2019-04-26T01:56:49.099Z,14.84
2019-04-26T01:59:31.818Z,14.80
2019-04-26T02:02:16.626Z,14.78
2019-04-26T02:04:49.102Z,14.69
2019-04-26T02:07:37.833Z,14.61
2019-04-26T02:10:13.206Z,14.59
2019-04-26T02:12:45.763Z,14.47
2019-04-26T02:15:27.365Z,14.47
2019-04-26T02:17:57.767Z,14.46
2019-04-26T02:21:12.909Z,14.55
2019-04-26T02:26:55.222Z,14.53
2019-04-26T02:29:28.890Z,14.34
2019-04-26T02:32:03.146Z,14.21
2019-04-26T02:34:37.195Z,14.04
2019-04-26T02:37:06.607Z,13.89
2019-04-26T02:40:02.666Z,13.79
2019-04-26T02:42:40.181Z,13.59
2019-04-26T02:45:44.469Z,13.36
2019-04-26T02:48:38.482Z,13.18
2019-04-26T02:51:14.115Z,12.99
2019-04-26T02:54:15.599Z,12.81
2019-04-26T02:56:46.302Z,12.67
2019-04-26T02:59:32.373Z,12.57
2019-04-26T03:02:04.529Z,12.47
2019-04-26T03:04:37.392Z,12.32
2019-04-26T03:07:17.678Z,12.21
2019-04-26T03:09:51.310Z,12.15
2019-04-26T03:12:26.303Z,12.07
2019-04-26T03:15:14.125Z,12.00
2019-04-26T03:18:24.322Z,11.92
2019-04-26T03:21:02.770Z,11.82
2019-04-26T03:23:57.480Z,11.73
2019-04-26T03:26:37.508Z,11.61
2019-04-26T03:29:43.667Z,11.47
2019-04-26T03:32:51.677Z,11.39
2019-04-26T03:35:34.681Z,11.22
2019-04-26T03:38:36.241Z,11.00
2019-04-26T03:41:17.955Z,10.83
2019-04-26T03:44:22.683Z,10.71
2019-04-26T03:46:55.848Z,10.72
2019-04-26T03:49:54.783Z,10.65
2019-04-26T03:52:39.662Z,10.72
2019-04-26T03:55:48.196Z,10.82
2019-04-26T03:58:25.820Z,10.79
2019-04-26T04:01:00.391Z,10.72
2019-04-26T04:03:43.494Z,10.62
2019-04-26T04:06:16.153Z,10.55
2019-04-26T04:08:59.830Z,10.48
2019-04-26T04:11:46.434Z,10.39
2019-04-26T04:14:29.231Z,10.42
2019-04-26T04:17:38.753Z,10.44
2019-04-26T04:20:42.602Z,10.49
2019-04-26T04:23:52.581Z,10.52
2019-04-26T04:26:56.129Z,10.53
2019-04-26T04:30:17.589Z,10.60
2019-04-26T04:33:04.378Z,10.58
2019-04-26T04:35:37.081Z,10.58
2019-04-26T04:38:24.185Z,10.59
2019-04-26T04:41:18.441Z,10.66
2019-04-26T04:44:00.975Z,10.64
2019-04-26T04:47:23.782Z,10.68
2019-04-26T04:49:52.858Z,10.69
2019-04-26T04:52:50.317Z,10.69
2019-04-26T04:55:42.788Z,10.75
2019-04-26T04:58:24.410Z,10.86
2019-04-26T05:02:11.790Z,10.91
2019-04-26T05:05:11.231Z,10.86
2019-04-26T05:08:07.689Z,10.96
2019-04-26T05:10:48.334Z,11.04
2019-04-26T05:13:25.008Z,11.23
2019-04-26T05:16:40.106Z,11.51
2019-04-26T05:19:31.006Z,11.76
2019-04-26T05:22:46.319Z,12.05
2019-04-26T05:26:12.090Z,12.21
2019-04-26T05:29:15.951Z,12.41
2019-04-26T05:31:58.151Z,12.66
2019-04-26T05:34:58.263Z,12.82
2019-04-26T05:38:18.418Z,12.97
2019-04-26T05:41:34.711Z,13.09
2019-04-26T05:44:35.754Z,13.21
2019-04-26T05:47:37.962Z,13.31
2019-04-26T05:51:02.934Z,13.47
2019-04-26T05:54:33.210Z,13.53
2019-04-26T05:57:43.732Z,13.69
2019-04-26T06:00:31.760Z,13.82
2019-04-26T06:03:43.789Z,13.86
2019-04-26T06:06:29.602Z,13.93
2019-04-26T06:10:04.494Z,13.99
2019-04-26T06:12:44.268Z,14.00
2019-04-26T06:15:43.079Z,13.92
2019-04-26T06:18:49.129Z,13.78
2019-04-26T06:21:37.000Z,13.61
2019-04-26T06:24:44.174Z,13.57
2019-04-26T06:27:50.529Z,13.58
2019-04-26T06:30:23.904Z,13.60
2019-04-26T06:33:08.762Z,13.75
2019-04-26T06:35:44.053Z,13.77
2019-04-26T06:39:04.216Z,13.86
2019-04-26T06:42:05.583Z,13.87
2019-04-26T06:45:10.507Z,13.88
2019-04-26T06:47:49.830Z,13.98
2019-04-26T06:50:40.247Z,14.04
2019-04-26T06:53:22.663Z,14.10
2019-04-26T06:56:15.233Z,14.29
2019-04-26T06:59:38.513Z,14.45
2019-04-26T07:02:18.461Z,14.61
2019-04-26T07:05:16.527Z,14.74
2019-04-26T07:08:28.122Z,14.83
2019-04-26T07:11:26.101Z,14.95
2019-04-26T07:14:29.079Z,15.06
2019-04-26T07:17:10.094Z,15.23
2019-04-26T07:20:28.124Z,15.06
2019-04-26T07:23:52.059Z,15.24
2019-04-26T07:26:56.087Z,15.50
2019-04-26T07:29:50.285Z,15.57
2019-04-26T07:32:44.366Z,15.58
2019-04-26T07:35:19.338Z,15.70
2019-04-26T07:38:12.875Z,15.82
2019-04-26T07:41:29.672Z,15.91
2019-04-26T07:44:57.168Z,15.91
2019-04-26T07:48:22.914Z,16.13
2019-04-26T07:51:32.616Z,16.30
2019-04-26T07:54:41.112Z,16.84
2019-04-26T07:57:40.547Z,16.90
2019-04-26T08:00:26.165Z,16.94
2019-04-26T08:03:26.460Z,16.91
2019-04-26T08:06:27.098Z,17.13
2019-04-26T08:09:26.838Z,17.37
2019-04-26T08:11:52.823Z,17.66
2019-04-26T08:14:34.078Z,17.84
2019-04-26T08:17:27.803Z,17.88
2019-04-26T08:20:14.049Z,18.15
2019-04-26T08:22:55.294Z,18.22
2019-04-26T08:25:31.560Z,18.36
2019-04-26T08:28:02.059Z,18.39
2019-04-26T08:30:44.779Z,18.55
2019-04-26T08:33:24.671Z,18.76
2019-04-26T08:35:56.320Z,18.69
2019-04-26T08:38:29.951Z,18.72
2019-04-26T08:45:17.353Z,18.58
2019-04-26T08:48:15.498Z,18.13
2019-04-26T08:50:49.894Z,18.68
2019-04-26T08:53:20.572Z,19.12
2019-04-26T08:55:53.117Z,19.09
2019-04-26T08:58:24.840Z,19.36
2019-04-26T09:01:20.361Z,19.42
2019-04-26T09:03:59.730Z,19.55
2019-04-26T09:06:42.536Z,19.73
2019-04-26T09:09:23.608Z,19.63
2019-04-26T09:11:59.780Z,19.97
2019-04-26T09:14:32.676Z,20.00
2019-04-26T09:17:06.645Z,20.03
2019-04-26T09:19:42.821Z,20.13
2019-04-26T09:22:38.697Z,20.27
2019-04-26T09:25:18.787Z,20.36
2019-04-26T09:27:53.479Z,20.14
2019-04-26T09:30:34.186Z,20.30
2019-04-26T09:33:31.797Z,20.77
2019-04-26T09:36:03.031Z,20.77
2019-04-26T09:38:34.998Z,21.09
2019-04-26T09:41:13.047Z,21.64
2019-04-26T09:44:08.762Z,21.79
2019-04-26T09:47:09.877Z,21.87
2019-04-26T09:49:59.156Z,21.49
2019-04-26T09:52:36.015Z,21.77
2019-04-26T09:55:06.522Z,21.25
2019-04-26T09:57:58.938Z,21.14
2019-04-26T10:00:31.759Z,21.34
2019-04-26T10:03:28.220Z,21.93
2019-04-26T10:06:01.304Z,21.63
2019-04-26T10:08:33.885Z,21.58
2019-04-26T10:11:09.561Z,21.83
2019-04-26T10:13:56.235Z,21.94
2019-04-26T10:19:54.699Z,22.75
2019-04-26T10:22:34.063Z,22.97
2019-04-26T10:25:15.921Z,22.18
2019-04-26T10:27:40.856Z,22.13
2019-04-26T10:30:13.902Z,22.07
2019-04-26T10:32:51.754Z,22.64
2019-04-26T10:35:23.254Z,23.22
2019-04-26T10:37:54.757Z,23.87
2019-04-26T10:40:36.204Z,24.07
2019-04-26T10:43:06.839Z,24.21
2019-04-26T10:45:37.318Z,24.63
2019-04-26T10:48:13.937Z,24.87
2019-04-26T10:50:49.682Z,24.63
2019-04-26T10:53:54.022Z,24.26
2019-04-26T10:56:49.377Z,24.05
2019-04-26T10:59:28.709Z,23.46
2019-04-26T11:02:02.210Z,23.11
2019-04-26T11:04:32.719Z,22.58
2019-04-26T11:07:03.495Z,22.37
2019-04-26T11:09:33.859Z,21.88
2019-04-26T11:12:11.127Z,22.25
2019-04-26T11:14:47.457Z,22.37
2019-04-26T11:17:38.917Z,22.32
2019-04-26T11:20:20.213Z,22.40
2019-04-26T11:22:55.473Z,23.04
2019-04-26T11:25:35.247Z,23.35
2019-04-26T11:28:10.102Z,23.51
2019-04-26T11:30:57.007Z,23.51
2019-04-26T11:33:31.932Z,23.29
2019-04-26T11:36:12.989Z,22.98
2019-04-26T11:38:56.221Z,23.02
2019-04-26T11:41:39.091Z,23.15
2019-04-26T11:44:14.499Z,23.21
2019-04-26T11:46:51.137Z,23.11
2019-04-26T11:49:23.856Z,23.49
2019-04-26T11:51:58.596Z,23.43
2019-04-26T11:54:32.081Z,22.77
2019-04-26T11:57:03.255Z,22.82
2019-04-26T11:59:41.324Z,23.00
2019-04-26T12:02:16.189Z,22.63
2019-04-26T12:04:59.602Z,22.89
2019-04-26T12:07:34.453Z,22.41
2019-04-26T12:10:12.761Z,22.40
2019-04-26T12:13:04.892Z,22.39
2019-04-26T12:15:43.717Z,22.35
2019-04-26T12:18:15.677Z,22.14
2019-04-26T12:20:52.729Z,22.15
2019-04-26T12:23:29.404Z,21.93
2019-04-26T12:26:01.068Z,21.85
2019-04-26T12:28:36.333Z,21.76
2019-04-26T12:31:18.505Z,21.63
2019-04-26T12:33:56.002Z,21.53
2019-04-26T12:36:39.524Z,21.57
2019-04-26T12:39:19.111Z,21.52
2019-04-26T12:41:50.449Z,20.89
2019-04-26T12:44:41.041Z,20.53
2019-04-26T12:47:34.464Z,20.40
2019-04-26T12:50:11.572Z,20.42
2019-04-26T12:52:42.717Z,20.28
2019-04-26T12:55:18.368Z,20.23
2019-04-26T12:57:52.692Z,20.19
2019-04-26T13:00:33.070Z,20.05
2019-04-26T13:03:19.697Z,20.10
2019-04-26T13:05:57.609Z,20.14
2019-04-26T13:08:25.147Z,20.09
2019-04-26T13:11:32.887Z,20.34
2019-04-26T13:14:09.494Z,20.49
2019-04-26T13:16:52.962Z,20.60
2019-04-26T13:19:30.885Z,20.45
2019-04-26T13:22:13.569Z,20.43
2019-04-26T13:24:52.659Z,20.26
2019-04-26T13:27:26.766Z,19.96
2019-04-26T13:30:02.580Z,19.81
2019-04-26T13:32:39.178Z,19.90
2019-04-26T13:35:26.417Z,19.95
2019-04-26T13:38:01.083Z,19.91
2019-04-26T13:40:34.128Z,19.32
2019-04-26T13:43:26.978Z,19.19
2019-04-26T13:46:25.630Z,19.12
2019-04-26T13:49:25.448Z,18.83
2019-04-26T13:51:58.104Z,18.50
2019-04-26T13:54:31.244Z,18.38
2019-04-26T13:57:10.141Z,18.28
2019-04-26T13:59:43.075Z,18.12
2019-04-26T14:02:16.536Z,17.96
2019-04-26T14:04:47.879Z,17.84
2019-04-26T14:07:28.085Z,17.70
2019-04-26T14:10:05.913Z,17.68
2019-04-26T14:12:31.992Z,17.52
2019-04-26T14:15:08.606Z,17.48
2019-04-26T14:17:37.629Z,17.44
2019-04-26T14:20:09.065Z,17.35
2019-04-26T14:22:46.235Z,17.10
2019-04-26T14:25:22.105Z,16.90
2019-04-26T14:27:54.313Z,16.88
2019-04-26T14:30:41.810Z,16.89
2019-04-26T14:33:11.224Z,16.83
2019-04-26T14:35:46.220Z,16.76
2019-04-26T14:38:28.017Z,16.64
2019-04-26T14:41:03.675Z,16.62
2019-04-26T14:43:39.989Z,16.44
2019-04-26T14:46:05.111Z,16.30
2019-04-26T14:48:36.752Z,16.21
2019-04-26T14:51:12.513Z,16.16
2019-04-26T14:53:44.258Z,16.14
2019-04-26T14:56:16.707Z,16.06
2019-04-26T14:58:52.220Z,15.98
2019-04-26T15:01:35.291Z,16.02
2019-04-26T15:04:28.076Z,15.97
2019-04-26T15:06:58.245Z,15.85
2019-04-26T15:09:35.805Z,15.59
2019-04-26T15:12:07.785Z,15.48
2019-04-26T15:14:37.877Z,15.23
2019-04-26T15:17:09.571Z,15.05
2019-04-26T15:19:45.917Z,14.89
2019-04-26T15:22:20.616Z,14.80
2019-04-26T15:24:53.407Z,14.80
2019-04-26T15:27:25.613Z,14.62
2019-04-26T15:29:57.372Z,14.55
2019-04-26T15:32:35.148Z,14.42
2019-04-26T15:35:06.008Z,14.42
2019-04-26T15:37:37.124Z,14.29
2019-04-26T15:40:19.963Z,14.18
2019-04-26T15:43:04.772Z,14.13
2019-04-26T15:45:42.903Z,14.19
2019-04-26T15:48:28.681Z,14.18
2019-04-26T15:50:59.098Z,14.11
2019-04-26T15:53:29.598Z,14.08
2019-04-26T15:56:00.550Z,14.08
2019-04-26T15:58:33.625Z,14.05
2019-04-26T16:01:10.786Z,14.13
2019-04-26T16:03:40.848Z,14.02
2019-04-26T16:06:16.051Z,14.02
2019-04-26T16:08:46.970Z,13.95
2019-04-26T16:11:20.919Z,13.92
2019-04-26T16:13:55.420Z,13.94
2019-04-26T16:16:29.193Z,13.87
2019-04-26T16:18:59.426Z,13.87
2019-04-26T16:21:34.238Z,13.80
2019-04-26T16:24:08.090Z,13.70
2019-04-26T16:26:40.528Z,13.63
2019-04-26T16:29:24.447Z,13.61
2019-04-26T16:32:47.328Z,13.53
2019-04-26T16:35:28.032Z,13.43
2019-04-26T16:38:22.947Z,13.16
2019-04-26T16:40:56.366Z,12.83
2019-04-26T16:43:37.714Z,12.43
2019-04-26T16:46:02.136Z,12.19
2019-04-26T16:48:36.504Z,11.95
2019-04-26T16:51:09.620Z,11.76
2019-04-26T16:54:02.860Z,11.47
2019-04-26T16:56:16.844Z,11.40
2019-04-26T16:58:54.929Z,11.37
2019-04-26T17:01:25.772Z,11.31
2019-04-26T17:03:59.397Z,11.28
2019-04-26T17:06:44.268Z,11.30
2019-04-26T17:09:14.112Z,11.30
2019-04-26T17:11:45.297Z,11.17
2019-04-26T17:14:19.046Z,11.11
2019-04-26T17:16:53.778Z,11.14
2019-04-26T17:19:35.854Z,11.12
2019-04-26T17:22:23.294Z,11.17
2019-04-26T17:25:03.677Z,11.07
2019-04-26T17:27:40.270Z,11.01
2019-04-26T17:32:55.389Z,10.94
2019-04-26T17:35:45.353Z,10.89
2019-04-26T17:38:31.252Z,10.85
2019-04-26T17:41:13.939Z,10.85
2019-04-26T17:44:08.504Z,10.81
2019-04-26T17:46:37.812Z,10.81
2019-04-26T17:49:34.447Z,10.73
2019-04-26T17:52:11.754Z,10.71
2019-04-26T17:54:49.008Z,10.51
2019-04-26T17:57:33.547Z,10.49
2019-04-26T18:00:28.690Z,10.58
2019-04-26T18:03:03.254Z,10.60
2019-04-26T18:05:56.670Z,10.56
2019-04-26T18:08:40.948Z,10.34
2019-04-26T18:11:18.998Z,10.12
2019-04-26T18:13:57.194Z,9.95
2019-04-26T18:16:29.651Z,9.84
2019-04-26T18:19:33.306Z,9.71
2019-04-26T18:22:17.834Z,9.80
2019-04-26T18:24:48.592Z,9.76
2019-04-26T18:27:24.001Z,9.71
2019-04-26T18:29:54.494Z,9.57
2019-04-26T18:32:41.808Z,9.60
2019-04-26T18:35:09.138Z,9.58
2019-04-26T18:37:39.557Z,9.43
2019-04-26T18:40:27.055Z,9.47
2019-04-26T18:42:59.201Z,9.48
2019-04-26T18:45:35.131Z,9.39
2019-04-26T18:48:13.808Z,9.32
2019-04-26T18:50:46.085Z,9.32
2019-04-26T18:53:39.358Z,9.33
2019-04-26T18:56:21.311Z,9.31
2019-04-26T18:59:00.522Z,9.28
2019-04-26T19:01:53.489Z,9.26
2019-04-26T19:04:29.245Z,9.13
2019-04-26T19:06:59.851Z,9.21
2019-04-26T19:10:02.943Z,9.32
2019-04-26T19:12:27.212Z,9.20
2019-04-26T19:15:24.590Z,9.15
2019-04-26T19:18:19.176Z,9.13
2019-04-26T19:21:21.925Z,9.07
2019-04-26T19:23:44.074Z,8.88
2019-04-26T19:26:34.764Z,8.89
2019-04-26T19:29:17.800Z,8.82
2019-04-26T19:31:45.729Z,8.81
2019-04-26T19:34:21.936Z,8.73
2019-04-26T19:36:52.477Z,8.71
2019-04-26T19:39:31.959Z,8.65
2019-04-26T19:41:58.610Z,8.72
2019-04-26T19:44:31.583Z,8.68
2019-04-26T19:47:18.589Z,8.61
2019-04-26T19:50:09.566Z,8.52
2019-04-26T19:53:23.037Z,8.52
2019-04-26T19:56:24.896Z,8.59
2019-04-26T19:58:59.691Z,8.47
2019-04-26T20:01:35.315Z,8.46
2019-04-26T20:04:30.303Z,8.37
2019-04-26T20:07:02.533Z,8.36
2019-04-26T20:09:36.173Z,8.48
2019-04-26T20:12:19.015Z,8.55
2019-04-26T20:14:54.305Z,8.55
2019-04-26T20:17:24.804Z,8.62
2019-04-26T20:20:02.686Z,8.63
2019-04-26T20:22:42.970Z,8.57
2019-04-26T20:25:13.827Z,8.58
2019-04-26T20:28:03.081Z,8.53
2019-04-26T20:30:51.907Z,8.52
2019-04-26T20:33:26.628Z,8.55
2019-04-26T20:36:01.889Z,8.52
2019-04-26T20:38:43.654Z,8.51
2019-04-26T20:41:14.866Z,8.50
2019-04-26T20:44:02.338Z,8.52
2019-04-26T20:46:25.129Z,8.45
2019-04-26T20:49:01.387Z,8.41
2019-04-26T20:51:40.768Z,8.45
2019-04-26T20:54:16.326Z,8.48
2019-04-26T20:56:52.541Z,8.50
2019-04-26T20:59:27.093Z,8.52
2019-04-26T21:02:05.458Z,8.58
2019-04-26T21:04:37.923Z,8.56
2019-04-26T21:07:06.696Z,8.54
2019-04-26T21:09:49.269Z,8.47
2019-04-26T21:12:22.566Z,8.35
2019-04-26T21:14:55.958Z,8.39
2019-04-26T21:17:32.229Z,8.36
2019-04-26T21:20:03.103Z,8.24
2019-04-26T21:22:36.646Z,8.16
2019-04-26T21:25:35.441Z,8.20
2019-04-26T21:28:29.446Z,8.27
2019-04-26T21:31:30.358Z,8.27
2019-04-26T21:34:07.830Z,8.12
2019-04-26T21:36:55.825Z,8.17
2019-04-26T21:39:49.355Z,8.23
2019-04-26T21:42:21.103Z,8.24
2019-04-26T21:44:57.131Z,8.22
2019-04-26T21:47:31.955Z,8.25
2019-04-26T21:50:02.332Z,8.20
2019-04-26T21:52:34.307Z,8.24
2019-04-26T21:55:06.580Z,8.23
2019-04-26T21:57:37.230Z,8.24
2019-04-26T22:00:53.625Z,8.19
2019-04-26T22:03:28.618Z,8.25
2019-04-26T22:06:01.022Z,8.19
2019-04-26T22:08:37.186Z,8.25
2019-04-26T22:11:13.949Z,8.22
2019-04-26T22:14:02.920Z,8.17
2019-04-26T22:16:46.167Z,8.04
2019-04-26T22:19:43.300Z,8.02
2019-04-26T22:22:23.296Z,8.00
2019-04-26T22:24:55.500Z,8.02
2019-04-26T22:27:28.737Z,8.02
2019-04-26T22:30:06.633Z,8.03
2019-04-26T22:32:40.253Z,8.07
2019-04-26T22:35:13.385Z,8.10
2019-04-26T22:37:45.603Z,8.18
2019-04-26T22:40:19.534Z,8.12
2019-04-26T22:42:50.672Z,8.11
2019-04-26T22:45:46.959Z,8.17
2019-04-26T22:48:33.953Z,8.20
2019-04-26T22:51:04.877Z,8.15
2019-04-26T22:53:43.417Z,8.11
2019-04-26T22:56:15.947Z,8.11
2019-04-26T22:58:46.436Z,8.13
2019-04-26T23:01:19.673Z,8.09
2019-04-26T23:03:50.810Z,8.08
2019-04-26T23:06:23.512Z,8.12
2019-04-26T23:09:00.181Z,8.14
2019-04-26T23:11:30.702Z,8.16
2019-04-26T23:14:29.250Z,8.12
2019-04-26T23:17:34.830Z,8.05
2019-04-26T23:20:34.317Z,8.00
2019-04-26T23:23:05.192Z,7.97
2019-04-26T23:25:35.875Z,7.96
2019-04-26T23:28:16.285Z,7.86
2019-04-26T23:30:48.425Z,7.80
2019-04-26T23:33:18.890Z,7.87
2019-04-26T23:35:49.384Z,7.94
2019-04-26T23:38:19.893Z,8.03
2019-04-26T23:41:01.194Z,8.05
2019-04-26T23:43:33.158Z,8.05
2019-04-26T23:46:03.611Z,8.08
2019-04-26T23:48:34.100Z,8.08
2019-04-26T23:51:08.197Z,8.08
2019-04-26T23:53:42.913Z,8.11
2019-04-26T23:56:16.222Z,8.07
2019-04-26T23:58:45.824Z,8.11
